createdAt,value
2023-10-12T00:01:02.551Z,11
2023-10-12T00:03:33.219Z,8
2023-10-12T00:06:03.794Z,12
2023-10-12T00:08:34.590Z,12
2023-10-12T00:11:05.296Z,10
2023-10-12T00:13:35.788Z,12
2023-10-12T00:16:06.556Z,12
2023-10-12T00:18:36.961Z,8
2023-10-12T00:21:07.402Z,8
2023-10-12T00:23:38.174Z,12
2023-10-12T00:26:08.611Z,9
2023-10-12T00:28:39.775Z,8
2023-10-12T00:31:10.156Z,8
2023-10-12T00:33:41.068Z,8
2023-10-12T00:36:10.268Z,8
2023-10-12T00:38:40.447Z,12
2023-10-12T00:41:11.479Z,8
2023-10-12T00:43:42.381Z,8
2023-10-12T00:46:12.821Z,8
2023-10-12T00:48:43.491Z,8
2023-10-12T00:51:14.825Z,8
2023-10-12T00:53:45.307Z,8
2023-10-12T00:56:15.913Z,8
2023-10-12T00:58:46.429Z,8
2023-10-12T01:01:17.943Z,6
2023-10-12T01:03:46.619Z,8
2023-10-12T01:06:17.102Z,5
2023-10-12T01:08:46.364Z,8
2023-10-12T01:11:17.313Z,8
2023-10-12T01:13:48.221Z,8
2023-10-12T01:16:18.847Z,8
2023-10-12T01:18:49.567Z,4
2023-10-12T01:21:20.376Z,8
2023-10-12T01:23:50.706Z,4
2023-10-12T01:26:22.575Z,8
2023-10-12T01:28:53.838Z,8
2023-10-12T01:31:24.849Z,8
2023-10-12T01:33:54.023Z,12
2023-10-12T01:36:24.943Z,8
2023-10-12T01:38:55.800Z,8
2023-10-12T01:41:26.902Z,8
2023-10-12T01:43:57.494Z,6
2023-10-12T01:46:27.972Z,8
2023-10-12T01:48:58.693Z,8
2023-10-12T01:51:30.280Z,8
2023-10-12T01:54:02.112Z,4
2023-10-12T01:56:33.112Z,12
2023-10-12T01:59:04.107Z,8
2023-10-12T02:01:35.060Z,8
2023-10-12T02:04:05.725Z,8
2023-10-12T02:06:36.706Z,8
2023-10-12T02:09:07.735Z,8
2023-10-12T02:11:38.703Z,8
2023-10-12T02:14:09.404Z,7
2023-10-12T02:16:40.514Z,8
2023-10-12T02:19:11.051Z,5
2023-10-12T02:21:41.420Z,7
2023-10-12T02:24:11.900Z,8
2023-10-12T02:26:42.642Z,8
2023-10-12T02:29:13.848Z,12
2023-10-12T02:31:45.177Z,8
2023-10-12T02:34:15.503Z,8
2023-10-12T02:36:46.659Z,8
2023-10-12T02:39:17.401Z,8
2023-10-12T02:41:48.342Z,8
2023-10-12T02:44:19.110Z,12
2023-10-12T02:46:49.649Z,8
2023-10-12T02:49:20.574Z,8
2023-10-12T02:51:51.603Z,8
2023-10-12T02:54:22.129Z,8
2023-10-12T02:56:53.064Z,8
2023-10-12T02:59:24.481Z,8
2023-10-12T03:01:55.787Z,13
2023-10-12T03:04:26.451Z,8
2023-10-12T03:06:57.159Z,9
2023-10-12T03:09:27.600Z,8
2023-10-12T03:11:58.644Z,8
2023-10-12T03:14:29.107Z,4
2023-10-12T03:17:00.302Z,8
2023-10-12T03:19:31.029Z,8
2023-10-12T03:22:01.654Z,4
2023-10-12T03:24:32.732Z,12
2023-10-12T03:27:03.921Z,8
2023-10-12T03:29:34.509Z,8
2023-10-12T03:32:05.607Z,8
2023-10-12T03:34:35.272Z,8
2023-10-12T03:37:06.369Z,8
2023-10-12T03:39:36.595Z,8
2023-10-12T03:42:07.104Z,12
2023-10-12T03:44:37.786Z,8
2023-10-12T03:47:08.674Z,12
2023-10-12T03:49:39.732Z,8
2023-10-12T03:52:10.314Z,8
2023-10-12T03:54:40.898Z,8
2023-10-12T03:57:11.847Z,8
2023-10-12T03:59:43.107Z,10
2023-10-12T04:02:14.093Z,12
2023-10-12T04:04:45.110Z,12
2023-10-12T04:07:13.332Z,12
2023-10-12T04:09:44.419Z,12
2023-10-12T04:12:14.772Z,12
2023-10-12T04:14:45.508Z,16
2023-10-12T04:17:16.245Z,12
2023-10-12T04:19:46.825Z,16
2023-10-12T04:22:17.228Z,16
2023-10-12T04:24:48.340Z,8
2023-10-12T04:27:19.199Z,10
2023-10-12T04:29:50.012Z,16
2023-10-12T04:32:20.945Z,8
2023-10-12T04:34:52.016Z,12
2023-10-12T04:37:23.046Z,12
2023-10-12T04:39:53.532Z,12
2023-10-12T04:42:23.911Z,16
2023-10-12T04:44:54.829Z,11
2023-10-12T04:47:25.889Z,26
2023-10-12T04:49:56.491Z,27
2023-10-12T04:52:27.762Z,10
2023-10-12T04:54:58.360Z,24
2023-10-12T04:57:29.446Z,16
2023-10-12T04:59:59.804Z,15
2023-10-12T05:02:33.634Z,12
2023-10-12T05:05:01.499Z,10
2023-10-12T05:07:32.369Z,16
2023-10-12T05:10:03.596Z,12
2023-10-12T05:12:34.659Z,20
2023-10-12T05:15:05.805Z,20
2023-10-12T05:17:37.013Z,16
2023-10-12T05:20:07.679Z,16
2023-10-12T05:22:38.530Z,16
2023-10-12T05:25:09.429Z,16
2023-10-12T05:27:40.696Z,16
2023-10-12T05:30:11.085Z,18
2023-10-12T05:32:42.227Z,17
2023-10-12T05:35:13.136Z,17
2023-10-12T05:37:43.632Z,16
2023-10-12T05:40:14.497Z,16
2023-10-12T05:42:47.700Z,20
2023-10-12T05:45:16.203Z,20
2023-10-12T05:47:45.275Z,16
2023-10-12T05:50:15.852Z,16
2023-10-12T05:52:46.819Z,22
2023-10-12T05:55:17.137Z,16
2023-10-12T05:57:48.512Z,20
2023-10-12T06:00:19.468Z,23
2023-10-12T06:02:50.512Z,14
2023-10-12T06:05:21.589Z,19
2023-10-12T06:07:52.087Z,16
2023-10-12T06:10:22.605Z,16
2023-10-12T06:12:53.342Z,20
2023-10-12T06:15:23.704Z,12
2023-10-12T06:17:58.341Z,16
2023-10-12T06:20:29.300Z,20
2023-10-12T06:22:59.642Z,16
2023-10-12T06:25:30.286Z,16
2023-10-12T06:28:00.811Z,16
2023-10-12T06:30:31.454Z,13
2023-10-12T06:33:02.730Z,12
2023-10-12T06:35:33.929Z,16
2023-10-12T06:38:04.581Z,16
2023-10-12T06:40:38.855Z,16
2023-10-12T06:43:07.610Z,12
2023-10-12T06:45:38.295Z,16
2023-10-12T06:48:08.813Z,17
2023-10-12T06:50:39.465Z,16
2023-10-12T06:53:11.853Z,16
2023-10-12T06:55:40.494Z,23
2023-10-12T06:58:09.562Z,20
2023-10-12T07:00:38.407Z,20
2023-10-12T07:03:07.635Z,20
2023-10-12T07:05:38.121Z,31
2023-10-12T07:08:09.246Z,20
2023-10-12T07:10:40.386Z,16
2023-10-12T07:13:10.825Z,23
2023-10-12T07:15:41.652Z,16
2023-10-12T07:18:12.625Z,36
2023-10-12T07:20:43.642Z,23
2023-10-12T07:23:14.457Z,16
2023-10-12T07:25:45.343Z,20
2023-10-12T07:28:16.004Z,20
2023-10-12T07:30:46.602Z,20
2023-10-12T07:33:20.610Z,12
2023-10-12T07:35:51.562Z,22
2023-10-12T07:38:22.089Z,14
2023-10-12T07:40:52.520Z,16
2023-10-12T07:43:23.208Z,27
2023-10-12T07:45:53.748Z,16
2023-10-12T07:48:24.106Z,16
2023-10-12T07:50:54.778Z,20
2023-10-12T07:53:25.377Z,16
2023-10-12T07:55:56.909Z,16
2023-10-12T07:58:27.738Z,12
2023-10-12T08:01:01.369Z,20
2023-10-12T08:03:31.474Z,15
2023-10-12T08:06:01.934Z,12
2023-10-12T08:08:32.497Z,17
2023-10-12T08:11:02.794Z,13
2023-10-12T08:13:33.327Z,29
2023-10-12T08:16:04.240Z,17
2023-10-12T08:18:34.731Z,12
2023-10-12T08:21:05.776Z,19
2023-10-12T08:23:36.510Z,16
2023-10-12T08:26:07.126Z,12
2023-10-12T08:28:38.370Z,14
2023-10-12T08:31:12.151Z,12
2023-10-12T08:33:42.581Z,16
2023-10-12T08:36:13.043Z,12
2023-10-12T08:38:43.684Z,13
2023-10-12T08:41:14.031Z,12
2023-10-12T08:43:45.293Z,12
2023-10-12T08:46:15.923Z,8
2023-10-12T08:48:46.371Z,18
2023-10-12T08:51:17.509Z,16
2023-10-12T08:53:48.098Z,16
2023-10-12T08:56:18.726Z,24
2023-10-12T08:58:49.199Z,20
2023-10-12T09:01:20.719Z,16
2023-10-12T09:03:51.269Z,20
2023-10-12T09:06:21.704Z,17
2023-10-12T09:08:50.793Z,16
2023-10-12T09:11:21.602Z,16
2023-10-12T09:13:52.113Z,12
2023-10-12T09:16:22.864Z,20
2023-10-12T09:18:53.716Z,17
2023-10-12T09:21:24.214Z,24
2023-10-12T09:23:55.248Z,12
2023-10-12T09:26:29.104Z,12
2023-10-12T09:28:59.629Z,18
2023-10-12T09:31:30.148Z,12
2023-10-12T09:34:00.434Z,14
2023-10-12T09:36:31.397Z,14
2023-10-12T09:39:03.500Z,12
2023-10-12T09:41:34.440Z,12
2023-10-12T09:44:05.385Z,12
2023-10-12T09:46:35.785Z,15
2023-10-12T09:49:06.271Z,13
2023-10-12T09:51:36.947Z,13
2023-10-12T09:54:07.509Z,12
2023-10-12T09:56:37.853Z,12
2023-10-12T09:59:08.557Z,11
2023-10-12T10:01:39.279Z,12
2023-10-12T10:04:10.234Z,12
2023-10-12T10:06:40.709Z,12
2023-10-12T10:09:11.735Z,12
2023-10-12T10:11:42.449Z,16
2023-10-12T10:14:12.864Z,9
2023-10-12T10:16:43.047Z,15
2023-10-12T10:19:13.548Z,16
2023-10-12T10:21:44.872Z,16
2023-10-12T10:24:15.992Z,12
2023-10-12T10:26:46.868Z,12
2023-10-12T10:29:21.343Z,12
2023-10-12T10:31:52.180Z,12
2023-10-12T10:34:23.672Z,12
2023-10-12T10:36:54.860Z,12
2023-10-12T10:39:25.399Z,13
2023-10-12T10:41:56.096Z,15
2023-10-12T10:44:26.637Z,16
2023-10-12T10:46:57.528Z,13
2023-10-12T10:49:33.569Z,16
2023-10-12T10:51:58.344Z,12
2023-10-12T10:54:28.705Z,14
2023-10-12T10:56:59.412Z,12
2023-10-12T10:59:30.326Z,16
2023-10-12T11:02:01.820Z,15
2023-10-12T11:04:32.389Z,14
2023-10-12T11:07:02.933Z,9
2023-10-12T11:09:33.875Z,12
2023-10-12T11:12:04.301Z,11
2023-10-12T11:14:35.647Z,8
2023-10-12T11:17:06.626Z,16
2023-10-12T11:19:37.304Z,16
2023-10-12T11:22:09.152Z,12
2023-10-12T11:24:40.136Z,12
2023-10-12T11:27:10.860Z,12
2023-10-12T11:29:41.327Z,14
2023-10-12T11:32:11.966Z,12
2023-10-12T11:34:42.999Z,12
2023-10-12T11:37:13.527Z,12
2023-10-12T11:39:43.997Z,12
2023-10-12T11:42:13.225Z,16
2023-10-12T11:44:44.049Z,12
2023-10-12T11:47:14.959Z,16
2023-10-12T11:49:45.620Z,12
2023-10-12T11:52:16.718Z,15
2023-10-12T11:54:47.635Z,8
2023-10-12T11:57:18.029Z,12
2023-10-12T11:59:49.281Z,12
2023-10-12T12:02:20.228Z,12
2023-10-12T12:05:05.759Z,12
2023-10-12T12:07:21.645Z,12
2023-10-12T12:09:52.190Z,12
2023-10-12T12:12:22.603Z,13
2023-10-12T12:14:53.024Z,15
2023-10-12T12:17:24.214Z,8
2023-10-12T12:19:55.080Z,12
2023-10-12T12:22:25.973Z,9
2023-10-12T12:24:57.403Z,8
2023-10-12T12:27:28.447Z,8
2023-10-12T12:30:09.078Z,11
2023-10-12T12:32:30.455Z,12
2023-10-12T12:35:01.004Z,11
2023-10-12T12:37:31.490Z,8
2023-10-12T12:40:02.321Z,8
2023-10-12T12:42:33.083Z,10
2023-10-12T12:47:36.541Z,8
2023-10-12T12:50:07.151Z,9
2023-10-12T12:52:39.925Z,8
2023-10-12T12:55:09.113Z,8
2023-10-12T12:57:40.019Z,8
2023-10-12T13:00:11.264Z,8
2023-10-12T13:02:42.268Z,8
2023-10-12T13:05:11.469Z,12
2023-10-12T13:07:42.629Z,11
2023-10-12T13:10:13.261Z,11
2023-10-12T13:12:46.824Z,8
2023-10-12T13:15:14.687Z,12
2023-10-12T13:17:45.201Z,8
2023-10-12T13:20:16.256Z,8
2023-10-12T13:22:46.904Z,8
2023-10-12T13:25:18.132Z,8
2023-10-12T13:27:49.108Z,8
2023-10-12T13:30:19.888Z,5
2023-10-12T13:32:50.765Z,8
2023-10-12T13:35:19.766Z,10
2023-10-12T13:37:49.969Z,8
2023-10-12T13:40:20.886Z,8
2023-10-12T13:42:51.598Z,8
2023-10-12T13:45:22.494Z,8
2023-10-12T13:47:53.566Z,12
2023-10-12T13:50:23.980Z,8
2023-10-12T13:52:54.450Z,8
2023-10-12T13:55:25.366Z,10
2023-10-12T13:57:55.863Z,8
2023-10-12T14:00:26.224Z,14
2023-10-12T14:02:57.028Z,12
2023-10-12T14:05:28.214Z,30
2023-10-12T14:07:58.682Z,28
2023-10-12T14:10:28.773Z,24
2023-10-12T14:12:59.229Z,15
2023-10-12T14:15:30.366Z,16
2023-10-12T14:18:01.371Z,12
2023-10-12T14:20:31.784Z,12
2023-10-12T14:23:02.691Z,13
2023-10-12T14:25:33.194Z,12
2023-10-12T14:28:03.599Z,14
2023-10-12T14:30:34.543Z,16
2023-10-12T14:33:05.565Z,18
2023-10-12T14:35:36.498Z,20
2023-10-12T14:38:06.901Z,20
2023-10-12T14:40:38.335Z,36
2023-10-12T14:43:08.595Z,21
2023-10-12T14:45:39.460Z,20
2023-10-12T14:48:10.028Z,28
2023-10-12T14:50:40.849Z,17
2023-10-12T14:53:11.173Z,28
2023-10-12T14:55:41.783Z,39
2023-10-12T14:58:12.210Z,49
2023-10-12T15:00:42.599Z,36
2023-10-12T15:03:13.096Z,36
2023-10-12T15:05:42.184Z,32
2023-10-12T15:08:13.042Z,35
2023-10-12T15:10:43.776Z,24
2023-10-12T15:13:14.119Z,24
2023-10-12T15:15:45.949Z,24
2023-10-12T15:18:15.012Z,23
2023-10-12T15:20:45.712Z,20
2023-10-12T15:23:16.140Z,20
2023-10-12T15:25:46.699Z,20
2023-10-12T15:28:17.201Z,24
2023-10-12T15:30:47.711Z,20
2023-10-12T15:33:18.282Z,23
2023-10-12T15:35:51.760Z,24
2023-10-12T15:38:22.130Z,20
2023-10-12T15:40:53.084Z,21
2023-10-12T15:43:23.634Z,28
2023-10-12T15:45:54.549Z,27
2023-10-12T15:48:25.372Z,26
2023-10-12T15:50:55.816Z,20
2023-10-12T15:53:26.641Z,22
2023-10-12T15:55:55.587Z,20
2023-10-12T15:58:24.551Z,21
2023-10-12T16:00:55.606Z,20
2023-10-12T16:03:26.448Z,16
2023-10-12T16:05:57.303Z,18
2023-10-12T16:08:27.679Z,21
2023-10-12T16:10:56.802Z,24
2023-10-12T16:13:28.093Z,26
2023-10-12T16:15:58.867Z,24
2023-10-12T16:18:29.523Z,25
2023-10-12T16:20:59.922Z,28
2023-10-12T16:26:04.275Z,37
2023-10-12T16:28:34.528Z,37
2023-10-12T16:31:07.401Z,28
2023-10-12T16:33:35.375Z,32
2023-10-12T16:36:06.466Z,32
2023-10-12T16:38:37.395Z,32
2023-10-12T16:41:07.501Z,32
2023-10-12T16:43:37.784Z,29
2023-10-12T16:46:06.929Z,31
2023-10-12T16:48:36.965Z,36
2023-10-12T16:51:07.485Z,36
2023-10-12T16:53:37.869Z,36
2023-10-12T16:56:08.400Z,34
2023-10-12T16:58:42.770Z,36
2023-10-12T17:01:13.161Z,35
2023-10-12T17:03:44.039Z,36
2023-10-12T17:06:14.184Z,36
2023-10-12T17:08:44.957Z,40
2023-10-12T17:11:14.913Z,40
2023-10-12T17:13:45.169Z,44
2023-10-12T17:16:15.611Z,44
2023-10-12T17:18:45.875Z,40
2023-10-12T17:21:16.324Z,40
2023-10-12T17:23:46.385Z,36
2023-10-12T17:26:16.643Z,36
2023-10-12T17:28:47.400Z,40
2023-10-12T17:31:18.531Z,36
2023-10-12T17:33:48.599Z,32
2023-10-12T17:36:18.972Z,32
2023-10-12T17:38:49.707Z,36
2023-10-12T17:41:20.342Z,31
2023-10-12T17:43:50.467Z,35
2023-10-12T17:46:21.027Z,32
2023-10-12T17:48:51.303Z,36
2023-10-12T17:51:21.611Z,40
2023-10-12T17:53:52.717Z,36
2023-10-12T17:56:21.780Z,32
2023-10-12T17:58:52.525Z,32
2023-10-12T18:01:23.260Z,38
2023-10-12T18:03:53.914Z,44
2023-10-12T18:06:24.198Z,37
2023-10-12T18:08:54.726Z,41
2023-10-12T18:11:25.133Z,52
2023-10-12T18:13:55.191Z,40
2023-10-12T18:16:25.812Z,40
2023-10-12T18:18:56.101Z,40
2023-10-12T18:21:26.431Z,40
2023-10-12T18:23:56.941Z,40
2023-10-12T18:26:27.150Z,40
2023-10-12T18:28:58.709Z,40
2023-10-12T18:31:29.185Z,40
2023-10-12T18:33:59.835Z,36
2023-10-12T18:36:30.224Z,34
2023-10-12T18:39:00.436Z,37
2023-10-12T18:41:31.115Z,78
2023-10-12T18:44:01.562Z,44
2023-10-12T18:46:31.993Z,40
2023-10-12T18:49:02.824Z,40
2023-10-12T18:51:33.563Z,36
2023-10-12T18:54:04.341Z,36
2023-10-12T18:56:34.808Z,34
2023-10-12T18:59:05.580Z,39
2023-10-12T19:01:34.371Z,36
2023-10-12T19:04:04.889Z,40
2023-10-12T19:06:34.861Z,36
2023-10-12T19:09:05.236Z,44
2023-10-12T19:11:35.878Z,44
2023-10-12T19:14:06.052Z,52
2023-10-12T19:16:35.158Z,56
2023-10-12T19:19:05.552Z,55
2023-10-12T19:21:36.196Z,56
2023-10-12T19:24:06.763Z,56
2023-10-12T19:26:36.879Z,56
2023-10-12T19:29:05.788Z,46
2023-10-12T19:31:36.296Z,40
2023-10-12T19:34:06.677Z,42
2023-10-12T19:36:36.933Z,40
2023-10-12T19:39:07.664Z,39
2023-10-12T19:41:38.719Z,36
2023-10-12T19:44:09.035Z,39
2023-10-12T19:46:40.123Z,34
2023-10-12T19:49:10.964Z,36
2023-10-12T19:51:41.680Z,36
2023-10-12T19:54:11.814Z,37
2023-10-12T19:56:42.079Z,36
2023-10-12T19:59:12.490Z,42
2023-10-12T20:01:42.875Z,39
2023-10-12T20:04:13.795Z,38
2023-10-12T20:06:42.492Z,32
2023-10-12T20:09:12.983Z,35
2023-10-12T20:11:43.255Z,32
2023-10-12T20:14:13.880Z,36
2023-10-12T20:16:44.455Z,35
2023-10-12T20:19:14.901Z,36
2023-10-12T20:21:45.703Z,37
2023-10-12T20:24:16.083Z,36
2023-10-12T20:26:47.354Z,40
2023-10-12T20:29:17.936Z,36
2023-10-12T20:31:48.222Z,42
2023-10-12T20:34:18.868Z,40
2023-10-12T20:36:49.168Z,42
2023-10-12T20:39:19.740Z,36
2023-10-12T20:41:48.657Z,40
2023-10-12T20:44:19.804Z,36
2023-10-12T20:46:50.303Z,32
2023-10-12T20:49:20.760Z,32
2023-10-12T20:51:50.928Z,36
2023-10-12T20:54:21.288Z,32
2023-10-12T20:56:51.774Z,37
2023-10-12T20:59:23.484Z,36
2023-10-12T21:01:54.065Z,34
2023-10-12T21:04:24.648Z,32
2023-10-12T21:06:55.291Z,32
2023-10-12T21:09:25.257Z,34
2023-10-12T21:11:55.270Z,33
2023-10-12T21:14:26.382Z,36
2023-10-12T21:16:56.959Z,36
2023-10-12T21:19:27.395Z,33
2023-10-12T21:21:58.487Z,32
2023-10-12T21:24:28.834Z,36
2023-10-12T21:26:58.797Z,32
2023-10-12T21:29:28.759Z,34
2023-10-12T21:31:59.638Z,34
2023-10-12T21:34:30.594Z,32
2023-10-12T21:37:01.627Z,32
2023-10-12T21:39:31.913Z,38
2023-10-12T21:42:02.341Z,32
2023-10-12T21:44:33.068Z,36
2023-10-12T21:47:02.354Z,29
2023-10-12T21:49:33.360Z,32
2023-10-12T21:52:04.176Z,32
2023-10-12T21:54:34.559Z,33
2023-10-12T21:57:05.290Z,36
2023-10-12T21:59:36.153Z,32
2023-10-12T22:02:15.179Z,32
2023-10-12T22:04:38.399Z,32
2023-10-12T22:07:09.182Z,32
2023-10-12T22:09:39.771Z,31
2023-10-12T22:12:10.096Z,32
2023-10-12T22:14:40.584Z,36
2023-10-12T22:17:10.886Z,38
2023-10-12T22:19:41.197Z,36
2023-10-12T22:22:11.974Z,37
2023-10-12T22:24:42.852Z,32
2023-10-12T22:27:14.574Z,36
2023-10-12T22:29:43.879Z,32
2023-10-12T22:32:14.347Z,32
2023-10-12T22:34:44.540Z,35
2023-10-12T22:37:15.130Z,36
2023-10-12T22:39:45.745Z,34
2023-10-12T22:42:16.408Z,33
2023-10-12T22:44:47.172Z,39
2023-10-12T22:47:18.187Z,32
2023-10-12T22:49:48.901Z,34
2023-10-12T22:52:19.036Z,32
2023-10-12T22:54:50.427Z,36
2023-10-12T22:57:21.472Z,34
2023-10-12T22:59:52.014Z,36
2023-10-12T23:02:22.865Z,32
2023-10-12T23:04:54.390Z,32
2023-10-12T23:07:25.599Z,32
2023-10-12T23:09:56.034Z,36
2023-10-12T23:12:26.873Z,32
2023-10-12T23:14:57.441Z,32
2023-10-12T23:17:28.332Z,33
2023-10-12T23:19:58.897Z,32
2023-10-12T23:22:29.379Z,32
2023-10-12T23:25:00.024Z,28
2023-10-12T23:27:32.931Z,29
2023-10-12T23:30:01.153Z,32
2023-10-12T23:32:31.471Z,32
2023-10-12T23:35:02.366Z,32
2023-10-12T23:37:33.642Z,37
2023-10-12T23:40:04.057Z,32
2023-10-12T23:42:34.680Z,32
2023-10-12T23:45:05.440Z,28
2023-10-12T23:47:36.318Z,33
2023-10-12T23:50:07.609Z,32
2023-10-12T23:52:38.452Z,34
2023-10-12T23:55:08.910Z,33
2023-10-12T23:57:39.279Z,33
